Terminal Aerodrome Forecast
Issued by NWS Tuscon, AZ

Home | Current Version | Previous Version | Text Only | Print | Product List | Glossary On
Versions: 1 2 3 4 5 6 7 8 9 10 11 12
000
FTUS45 KTWC 301700
TAFTUS
TAF
KTUS 301735Z 3018/3118 15006KT P6SM FEW100
     FM302100 28008KT P6SM SCT100
     FM310200 23005KT P6SM FEW100
     FM310500 15007KT P6SM SKC=

USA.gov is the U.S. government's official web portal to all federal, state and local government web resources and services.